Time,TemperatureF,DewpointF,PressureIn,WindDirection,WindDirectionDegrees,WindSpeedMPH,WindSpeedGustMPH,Humidity,HourlyPrecipIn,Conditions,Clouds,dailyrainin,SoftwareType,DateUTC
2013-08-10 00:03:00,73.8,72.6,30.03,West,266,0.0,2.0,96,0.00,,,0.00,Wunderground v.1.15,2013-08-10 05:03:00,
2013-08-10 00:08:00,73.7,72.5,30.03,West,266,0.0,2.0,96,0.00,,,0.00,Wunderground v.1.15,2013-08-10 05:08:00,
2013-08-10 00:14:00,73.6,72.4,30.03,West,267,0.0,2.0,96,0.00,,,0.00,Wunderground v.1.15,2013-08-10 05:14:00,
2013-08-10 00:19:00,73.5,72.6,30.03,West,267,0.0,2.0,97,0.00,,,0.00,Wunderground v.1.15,2013-08-10 05:19:00,
2013-08-10 00:25:00,73.4,72.5,30.03,West,267,0.0,2.0,97,0.00,,,0.00,Wunderground v.1.15,2013-08-10 05:25:00,
2013-08-10 00:30:00,73.5,72.6,30.03,West,266,0.0,2.0,97,0.00,,,0.00,Wunderground v.1.15,2013-08-10 05:30:00,
2013-08-10 00:36:00,73.5,72.6,30.02,West,267,0.0,2.0,97,0.00,,,0.00,Wunderground v.1.15,2013-08-10 05:36:00,
2013-08-10 00:41:00,73.5,72.6,30.02,West,267,0.0,2.0,97,0.00,,,0.00,Wunderground v.1.15,2013-08-10 05:41:00,
2013-08-10 00:47:00,73.5,72.6,30.02,West,267,0.0,2.0,97,0.00,,,0.00,Wunderground v.1.15,2013-08-10 05:47:00,
2013-08-10 00:52:00,73.6,72.7,30.02,West,266,0.0,2.0,97,0.00,,,0.00,Wunderground v.1.15,2013-08-10 05:52:00,
2013-08-10 00:58:00,73.8,72.9,30.02,West,267,0.0,2.0,97,0.00,,,0.00,Wunderground v.1.15,2013-08-10 05:58:00,
2013-08-10 01:03:00,73.8,72.9,30.02,West,267,0.0,2.0,97,0.00,,,0.00,Wunderground v.1.15,2013-08-10 06:03:00,
2013-08-10 01:08:00,73.9,73.0,30.02,West,267,0.0,2.0,97,0.00,,,0.00,Wunderground v.1.15,2013-08-10 06:08:00,
2013-08-10 01:14:00,73.8,72.9,30.02,West,266,0.0,2.0,97,0.00,,,0.00,Wunderground v.1.15,2013-08-10 06:14:00,
2013-08-10 01:19:00,73.8,72.9,30.02,West,267,0.0,2.0,97,0.00,,,0.00,Wunderground v.1.15,2013-08-10 06:19:00,
2013-08-10 01:25:00,73.6,72.7,30.02,West,264,0.0,2.0,97,0.00,,,0.00,Wunderground v.1.15,2013-08-10 06:25:00,
2013-08-10 01:30:00,73.4,72.5,30.02,West,266,0.0,2.0,97,0.00,,,0.00,Wunderground v.1.15,2013-08-10 06:30:00,
2013-08-10 01:35:00,73.3,72.4,30.02,West,266,0.0,2.0,97,0.00,,,0.00,Wunderground v.1.15,2013-08-10 06:35:00,
2013-08-10 01:41:00,73.3,72.4,30.02,West,264,0.0,2.0,97,0.00,,,0.00,Wunderground v.1.15,2013-08-10 06:41:00,
2013-08-10 01:46:00,73.3,72.4,30.02,West,264,0.0,2.0,97,0.00,,,0.00,Wunderground v.1.15,2013-08-10 06:46:00,
2013-08-10 01:52:00,73.2,72.3,30.02,West,264,0.0,2.0,97,0.00,,,0.00,Wunderground v.1.15,2013-08-10 06:52:00,
2013-08-10 01:57:00,73.1,72.2,30.02,West,264,0.0,2.0,97,0.00,,,0.00,Wunderground v.1.15,2013-08-10 06:57:00,
2013-08-10 02:03:00,73.0,72.1,30.03,West,264,0.0,2.0,97,0.00,,,0.00,Wunderground v.1.15,2013-08-10 07:03:00,
2013-08-10 02:08:00,73.0,72.1,30.03,West,264,0.0,2.0,97,0.00,,,0.00,Wunderground v.1.15,2013-08-10 07:08:00,
2013-08-10 02:13:00,72.9,72.0,30.03,West,266,0.0,2.0,97,0.00,,,0.00,Wunderground v.1.15,2013-08-10 07:13:00,
2013-08-10 02:19:00,72.8,71.9,30.03,West,266,0.0,2.0,97,0.00,,,0.00,Wunderground v.1.15,2013-08-10 07:19:00,
2013-08-10 02:24:00,72.7,71.8,30.03,West,266,0.0,2.0,97,0.00,,,0.00,Wunderground v.1.15,2013-08-10 07:24:00,
2013-08-10 02:29:00,72.8,71.9,30.03,West,265,0.0,2.0,97,0.00,,,0.00,Wunderground v.1.15,2013-08-10 07:29:00,
2013-08-10 02:35:00,72.7,71.8,30.03,West,266,0.0,2.0,97,0.00,,,0.00,Wunderground v.1.15,2013-08-10 07:35:00,
2013-08-10 02:41:00,72.7,71.8,30.03,West,265,0.0,2.0,97,0.00,,,0.00,Wunderground v.1.15,2013-08-10 07:41:00,
2013-08-10 02:47:00,72.6,71.7,30.03,West,266,0.0,2.0,97,0.00,,,0.00,Wunderground v.1.15,2013-08-10 07:47:00,
2013-08-10 02:52:00,72.6,71.7,30.03,West,265,0.0,2.0,97,0.00,,,0.00,Wunderground v.1.15,2013-08-10 07:52:00,
2013-08-10 02:58:00,72.6,71.7,30.03,West,265,0.0,2.0,97,0.00,,,0.00,Wunderground v.1.15,2013-08-10 07:58:00,
2013-08-10 03:04:00,72.5,71.6,30.03,West,266,0.0,2.0,97,0.00,,,0.00,Wunderground v.1.15,2013-08-10 08:04:00,
2013-08-10 03:10:00,72.6,72.0,30.03,West,264,0.0,2.0,98,0.00,,,0.00,Wunderground v.1.15,2013-08-10 08:10:00,
2013-08-10 03:15:00,72.5,71.9,30.03,West,264,0.0,2.0,98,0.00,,,0.00,Wunderground v.1.15,2013-08-10 08:15:00,
2013-08-10 03:20:00,72.5,71.9,30.03,West,264,0.0,2.0,98,0.00,,,0.00,Wunderground v.1.15,2013-08-10 08:20:00,
2013-08-10 03:26:00,72.6,72.0,30.03,West,264,0.0,2.0,98,0.00,,,0.00,Wunderground v.1.15,2013-08-10 08:26:00,
2013-08-10 03:31:00,72.5,71.9,30.03,West,264,0.0,2.0,98,0.00,,,0.00,Wunderground v.1.15,2013-08-10 08:31:00,
2013-08-10 03:37:00,72.4,71.8,30.03,WSW,258,0.0,2.0,98,0.00,,,0.00,Wunderground v.1.15,2013-08-10 08:37:00,
2013-08-10 03:42:00,72.2,71.6,30.03,WSW,258,0.0,2.0,98,0.00,,,0.00,Wunderground v.1.15,2013-08-10 08:42:00,
2013-08-10 03:48:00,72.1,71.5,30.03,WSW,258,0.0,2.0,98,0.00,,,0.00,Wunderground v.1.15,2013-08-10 08:48:00,
2013-08-10 03:53:00,72.0,71.4,30.03,WSW,258,0.0,2.0,98,0.00,,,0.00,Wunderground v.1.15,2013-08-10 08:53:00,
2013-08-10 03:59:00,71.9,71.3,30.03,WSW,258,0.0,2.0,98,0.00,,,0.00,Wunderground v.1.15,2013-08-10 08:59:00,
2013-08-10 04:04:00,71.8,71.2,30.03,WSW,258,0.0,2.0,98,0.00,,,0.00,Wunderground v.1.15,2013-08-10 09:04:00,
2013-08-10 04:09:00,71.8,71.2,30.03,WSW,258,0.0,2.0,98,0.00,,,0.00,Wunderground v.1.15,2013-08-10 09:09:00,
2013-08-10 04:15:00,71.6,71.0,30.03,WSW,258,0.0,2.0,98,0.00,,,0.00,Wunderground v.1.15,2013-08-10 09:15:00,
2013-08-10 04:21:00,71.7,71.1,30.03,WSW,258,0.0,2.0,98,0.00,,,0.00,Wunderground v.1.15,2013-08-10 09:21:00,
2013-08-10 04:26:00,71.6,71.0,30.03,WSW,258,0.0,2.0,98,0.00,,,0.00,Wunderground v.1.15,2013-08-10 09:26:00,
2013-08-10 04:32:00,71.6,71.0,30.03,WSW,258,0.0,2.0,98,0.00,,,0.00,Wunderground v.1.15,2013-08-10 09:32:00,
2013-08-10 04:37:00,71.6,71.0,30.03,WSW,258,0.0,2.0,98,0.00,,,0.00,Wunderground v.1.15,2013-08-10 09:37:00,
2013-08-10 04:42:00,71.7,71.1,30.03,WSW,258,0.0,2.0,98,0.00,,,0.00,Wunderground v.1.15,2013-08-10 09:42:00,
2013-08-10 04:48:00,71.8,71.2,30.03,WSW,258,0.0,2.0,98,0.00,,,0.00,Wunderground v.1.15,2013-08-10 09:48:00,
2013-08-10 04:53:00,71.8,71.2,30.04,WSW,258,0.0,2.0,98,0.00,,,0.00,Wunderground v.1.15,2013-08-10 09:53:00,
2013-08-10 04:58:00,71.8,71.2,30.04,WSW,258,0.0,2.0,98,0.00,,,0.00,Wunderground v.1.15,2013-08-10 09:58:00,
2013-08-10 05:04:00,71.7,71.1,30.04,WSW,258,0.0,2.0,98,0.00,,,0.00,Wunderground v.1.15,2013-08-10 10:04:00,
2013-08-10 05:09:00,71.6,71.0,30.04,WSW,258,0.0,2.0,98,0.00,,,0.00,Wunderground v.1.15,2013-08-10 10:09:00,
2013-08-10 05:15:00,71.6,71.0,30.04,WSW,258,0.0,2.0,98,0.00,,,0.00,Wunderground v.1.15,2013-08-10 10:15:00,
2013-08-10 05:20:00,71.6,71.0,30.04,WSW,258,0.0,2.0,98,0.00,,,0.00,Wunderground v.1.15,2013-08-10 10:20:00,
2013-08-10 05:26:00,71.7,71.1,30.04,West,259,0.0,2.0,98,0.00,,,0.00,Wunderground v.1.15,2013-08-10 10:26:00,
2013-08-10 05:31:00,71.7,71.1,30.04,WSW,258,0.0,2.0,98,0.00,,,0.00,Wunderground v.1.15,2013-08-10 10:31:00,
2013-08-10 05:37:00,71.7,71.1,30.05,WSW,258,0.0,2.0,98,0.00,,,0.00,Wunderground v.1.15,2013-08-10 10:37:00,
2013-08-10 05:42:00,71.7,71.1,30.05,WSW,258,0.0,2.0,98,0.00,,,0.00,Wunderground v.1.15,2013-08-10 10:42:00,
2013-08-10 05:48:00,71.6,71.0,30.04,WSW,258,0.0,2.0,98,0.00,,,0.00,Wunderground v.1.15,2013-08-10 10:48:00,
2013-08-10 05:53:00,71.7,71.1,30.05,WSW,258,0.0,2.0,98,0.00,,,0.00,Wunderground v.1.15,2013-08-10 10:53:00,
2013-08-10 05:58:00,71.7,71.1,30.05,WSW,258,0.0,2.0,98,0.00,,,0.00,Wunderground v.1.15,2013-08-10 10:58:00,
2013-08-10 06:04:00,71.7,71.1,30.05,WSW,258,0.0,2.0,98,0.00,,,0.00,Wunderground v.1.15,2013-08-10 11:04:00,
2013-08-10 06:09:00,71.7,71.1,30.05,WSW,258,0.0,2.0,98,0.00,,,0.00,Wunderground v.1.15,2013-08-10 11:09:00,
2013-08-10 06:15:00,71.8,71.2,30.05,WSW,257,0.0,2.0,98,0.00,,,0.00,Wunderground v.1.15,2013-08-10 11:15:00,
2013-08-10 06:20:00,71.8,71.2,30.06,WSW,258,0.0,2.0,98,0.00,,,0.00,Wunderground v.1.15,2013-08-10 11:20:00,
2013-08-10 06:25:00,71.9,71.3,30.06,WSW,258,0.0,2.0,98,0.00,,,0.00,Wunderground v.1.15,2013-08-10 11:25:00,
2013-08-10 06:31:00,72.0,71.4,30.06,WSW,258,0.0,2.0,98,0.00,,,0.00,Wunderground v.1.15,2013-08-10 11:31:00,
2013-08-10 06:36:00,72.1,71.5,30.06,WSW,258,0.0,2.0,98,0.00,,,0.00,Wunderground v.1.15,2013-08-10 11:36:00,
2013-08-10 06:43:00,72.2,71.6,30.07,WSW,257,0.0,2.0,98,0.00,,,0.00,Wunderground v.1.15,2013-08-10 11:43:00,
2013-08-10 06:49:00,72.3,71.7,30.07,WNW,294,0.0,2.0,98,0.00,,,0.00,Wunderground v.1.15,2013-08-10 11:49:00,
2013-08-10 06:54:00,72.3,71.7,30.07,WNW,294,0.0,2.0,98,0.00,,,0.00,Wunderground v.1.15,2013-08-10 11:54:00,
2013-08-10 06:59:00,72.3,71.7,30.07,WNW,295,0.0,2.0,98,0.00,,,0.00,Wunderground v.1.15,2013-08-10 11:59:00,
2013-08-10 07:05:00,72.4,71.8,30.07,WNW,294,0.0,2.0,98,0.00,,,0.00,Wunderground v.1.15,2013-08-10 12:05:00,
2013-08-10 07:10:00,72.4,71.8,30.07,WNW,294,0.0,2.0,98,0.00,,,0.00,Wunderground v.1.15,2013-08-10 12:10:00,
2013-08-10 07:16:00,72.5,71.9,30.07,WNW,294,0.0,2.0,98,0.00,,,0.00,Wunderground v.1.15,2013-08-10 12:16:00,
2013-08-10 07:21:00,72.6,72.0,30.07,NW,314,0.0,2.0,98,0.00,,,0.00,Wunderground v.1.15,2013-08-10 12:21:00,
2013-08-10 07:27:00,72.7,72.1,30.07,WNW,297,0.0,2.0,98,0.00,,,0.00,Wunderground v.1.15,2013-08-10 12:27:00,
2013-08-10 07:32:00,72.9,72.3,30.07,WNW,293,0.0,2.0,98,0.00,,,0.00,Wunderground v.1.15,2013-08-10 12:32:00,
2013-08-10 07:38:00,73.1,72.5,30.07,WNW,300,0.0,2.0,98,0.00,,,0.00,Wunderground v.1.15,2013-08-10 12:38:00,
2013-08-10 07:43:00,73.2,72.6,30.07,WNW,301,0.0,2.0,98,0.00,,,0.00,Wunderground v.1.15,2013-08-10 12:43:00,
2013-08-10 07:49:00,73.3,72.7,30.07,North,356,0.0,2.0,98,0.00,,,0.00,Wunderground v.1.15,2013-08-10 12:49:00,
2013-08-10 07:54:00,73.4,72.8,30.07,WNW,300,0.0,2.0,98,0.00,,,0.00,Wunderground v.1.15,2013-08-10 12:54:00,
2013-08-10 07:59:00,73.5,72.9,30.08,WNW,297,0.0,2.0,98,0.00,,,0.00,Wunderground v.1.15,2013-08-10 12:59:00,
2013-08-10 08:05:00,73.5,72.9,30.08,ENE,66,0.0,2.0,98,0.00,,,0.00,Wunderground v.1.15,2013-08-10 13:05:00,
2013-08-10 08:10:00,73.8,73.2,30.08,North,349,0.0,2.0,98,0.00,,,0.00,Wunderground v.1.15,2013-08-10 13:10:00,
2013-08-10 08:16:00,74.2,73.6,30.08,WNW,293,0.0,2.0,98,0.00,,,0.00,Wunderground v.1.15,2013-08-10 13:16:00,
2013-08-10 08:21:00,74.6,74.0,30.07,SW,216,0.0,2.0,98,0.00,,,0.00,Wunderground v.1.15,2013-08-10 13:21:00,
2013-08-10 08:27:00,74.5,73.9,30.07,ENE,72,1.0,2.0,98,0.00,,,0.00,Wunderground v.1.15,2013-08-10 13:27:00,
2013-08-10 08:32:00,74.8,74.2,30.08,NE,39,1.0,3.0,98,0.00,,,0.00,Wunderground v.1.15,2013-08-10 13:32:00,
2013-08-10 08:38:00,74.8,74.2,30.08,ENE,57,1.0,3.0,98,0.00,,,0.00,Wunderground v.1.15,2013-08-10 13:38:00,
2013-08-10 08:43:00,75.1,74.5,30.08,ENE,61,1.0,2.0,98,0.00,,,0.00,Wunderground v.1.15,2013-08-10 13:43:00,
2013-08-10 08:49:00,75.5,74.6,30.08,NE,53,1.0,2.0,97,0.00,,,0.00,Wunderground v.1.15,2013-08-10 13:49:00,
2013-08-10 08:54:00,76.1,75.2,30.08,NW,310,1.0,2.0,97,0.00,,,0.00,Wunderground v.1.15,2013-08-10 13:54:00,
2013-08-10 08:59:00,76.4,74.9,30.08,ENE,58,2.0,2.0,95,0.00,,,0.00,Wunderground v.1.15,2013-08-10 13:59:00,
2013-08-10 09:05:00,76.7,75.2,30.08,ENE,62,2.0,3.0,95,0.00,,,0.00,Wunderground v.1.15,2013-08-10 14:05:00,
2013-08-10 09:10:00,77.2,75.3,30.08,North,1,1.0,2.0,94,0.00,,,0.00,Wunderground v.1.15,2013-08-10 14:10:00,
2013-08-10 09:16:00,77.6,75.4,30.08,North,10,1.0,2.0,93,0.00,,,0.00,Wunderground v.1.15,2013-08-10 14:16:00,
2013-08-10 09:21:00,78.2,75.7,30.08,NW,304,1.0,2.0,92,0.00,,,0.00,Wunderground v.1.15,2013-08-10 14:21:00,
2013-08-10 09:27:00,79.0,76.1,30.08,ENE,74,1.0,3.0,91,0.00,,,0.00,Wunderground v.1.15,2013-08-10 14:27:00,
2013-08-10 09:32:00,79.4,76.2,30.08,NNE,15,1.0,2.0,90,0.00,,,0.00,Wunderground v.1.15,2013-08-10 14:32:00,
2013-08-10 09:38:00,80.1,76.9,30.08,NNW,342,1.0,2.0,90,0.00,,,0.00,Wunderground v.1.15,2013-08-10 14:38:00,
2013-08-10 09:43:00,80.6,76.4,30.08,WNW,300,1.0,2.0,87,0.00,,,0.00,Wunderground v.1.15,2013-08-10 14:43:00,
2013-08-10 09:48:00,81.0,76.4,30.08,WNW,293,1.0,2.0,86,0.00,,,0.00,Wunderground v.1.15,2013-08-10 14:48:00,
2013-08-10 09:54:00,81.6,77.0,30.08,NNE,15,1.0,2.0,86,0.00,,,0.00,Wunderground v.1.15,2013-08-10 14:54:00,
2013-08-10 09:59:00,82.1,76.4,30.08,WNW,302,1.0,2.0,83,0.00,,,0.00,Wunderground v.1.15,2013-08-10 14:59:00,
2013-08-10 10:06:00,82.1,76.8,30.08,East,100,1.0,2.0,84,0.00,,,0.00,Wunderground v.1.15,2013-08-10 15:06:00,
2013-08-10 10:11:00,82.4,76.3,30.08,WNW,289,1.0,2.0,82,0.00,,,0.00,Wunderground v.1.15,2013-08-10 15:11:00,
2013-08-10 10:17:00,82.9,77.6,30.08,NE,34,1.0,2.0,84,0.00,,,0.00,Wunderground v.1.15,2013-08-10 15:17:00,
2013-08-10 10:22:00,83.1,76.7,30.08,ENE,60,1.0,2.0,81,0.00,,,0.00,Wunderground v.1.15,2013-08-10 15:22:00,
2013-08-10 10:28:00,82.7,77.0,30.08,ESE,112,1.0,2.0,83,0.00,,,0.00,Wunderground v.1.15,2013-08-10 15:28:00,
2013-08-10 10:34:00,82.4,76.3,30.08,WSW,237,1.0,2.0,82,0.00,,,0.00,Wunderground v.1.15,2013-08-10 15:34:00,
2013-08-10 10:40:00,82.8,77.1,30.08,WNW,294,0.0,2.0,83,0.00,,,0.00,Wunderground v.1.15,2013-08-10 15:40:00,
2013-08-10 10:45:00,83.3,77.2,30.08,NNE,15,0.0,2.0,82,0.00,,,0.00,Wunderground v.1.15,2013-08-10 15:45:00,
2013-08-10 10:51:00,83.7,77.2,30.07,NNW,347,1.0,2.0,81,0.00,,,0.00,Wunderground v.1.15,2013-08-10 15:51:00,
2013-08-10 10:56:00,83.7,77.2,30.07,North,352,1.0,2.0,81,0.00,,,0.00,Wunderground v.1.15,2013-08-10 15:56:00,
2013-08-10 11:01:00,83.3,76.9,30.07,ENE,68,1.0,2.0,81,0.00,,,0.00,Wunderground v.1.15,2013-08-10 16:01:00,
2013-08-10 11:07:00,82.7,76.6,30.07,ENE,65,1.0,3.0,82,0.00,,,0.00,Wunderground v.1.15,2013-08-10 16:07:00,
2013-08-10 11:12:00,81.4,76.5,30.07,NE,51,1.0,3.0,85,0.00,,,0.01,Wunderground v.1.15,2013-08-10 16:12:00,
2013-08-10 11:18:00,80.3,76.1,30.07,NNW,339,1.0,3.0,87,0.00,,,0.01,Wunderground v.1.15,2013-08-10 16:18:00,
2013-08-10 11:23:00,79.5,76.0,30.07,NNE,13,1.0,2.0,89,0.00,,,0.01,Wunderground v.1.15,2013-08-10 16:23:00,
2013-08-10 11:29:00,78.5,75.7,30.07,NW,304,2.0,2.0,91,0.00,,,0.01,Wunderground v.1.15,2013-08-10 16:29:00,
2013-08-10 11:34:00,77.8,75.3,30.08,NNE,25,2.0,4.0,92,0.00,,,0.02,Wunderground v.1.15,2013-08-10 16:34:00,
2013-08-10 11:40:00,77.1,74.9,30.07,NNE,22,2.0,2.0,93,0.00,,,0.02,Wunderground v.1.15,2013-08-10 16:40:00,
2013-08-10 11:45:00,76.7,74.5,30.07,ENE,64,1.0,2.0,93,0.00,,,0.02,Wunderground v.1.15,2013-08-10 16:45:00,
2013-08-10 11:51:00,76.1,73.6,30.07,ENE,62,1.0,2.0,92,0.00,,,0.02,Wunderground v.1.15,2013-08-10 16:51:00,
2013-08-10 11:56:00,75.8,73.3,30.07,NE,47,1.0,2.0,92,0.00,,,0.02,Wunderground v.1.15,2013-08-10 16:56:00,
2013-08-10 12:02:00,76.4,73.9,30.07,North,351,1.0,2.0,92,0.00,,,0.02,Wunderground v.1.15,2013-08-10 17:02:00,
2013-08-10 12:07:00,77.1,74.3,30.07,ENE,63,1.0,2.0,91,0.00,,,0.02,Wunderground v.1.15,2013-08-10 17:07:00,
2013-08-10 12:13:00,77.1,73.6,30.07,ENE,75,1.0,2.0,89,0.00,,,0.02,Wunderground v.1.15,2013-08-10 17:13:00,
2013-08-10 12:19:00,76.7,73.2,30.06,NNE,15,1.0,2.0,89,0.00,,,0.02,Wunderground v.1.15,2013-08-10 17:19:00,
2013-08-10 12:25:00,76.3,73.5,30.06,ENE,71,1.0,2.0,91,0.00,,,0.02,Wunderground v.1.15,2013-08-10 17:25:00,
2013-08-10 12:31:00,75.8,72.7,30.07,NNW,337,1.0,3.0,90,0.00,,,0.02,Wunderground v.1.15,2013-08-10 17:31:00,
2013-08-10 12:36:00,75.5,72.7,30.07,NE,41,2.0,3.0,91,0.00,,,0.02,Wunderground v.1.15,2013-08-10 17:36:00,
2013-08-10 12:42:00,75.3,72.5,30.07,North,6,1.0,2.0,91,0.00,,,0.02,Wunderground v.1.15,2013-08-10 17:42:00,
2013-08-10 12:47:00,75.1,72.6,30.07,NE,49,1.0,2.0,92,0.00,,,0.02,Wunderground v.1.15,2013-08-10 17:47:00,
2013-08-10 12:53:00,74.8,72.6,30.08,North,10,1.0,3.0,93,0.00,,,0.02,Wunderground v.1.15,2013-08-10 17:53:00,
2013-08-10 12:59:00,74.7,72.9,30.07,NNW,347,2.0,3.0,94,0.00,,,0.02,Wunderground v.1.15,2013-08-10 17:59:00,
2013-08-10 13:04:00,74.6,72.8,30.07,NNE,15,2.0,4.0,94,0.00,,,0.02,Wunderground v.1.15,2013-08-10 18:04:00,
2013-08-10 13:10:00,74.6,73.1,30.07,ENE,57,2.0,2.0,95,0.00,,,0.02,Wunderground v.1.15,2013-08-10 18:10:00,
2013-08-10 13:15:00,74.5,73.0,30.06,ENE,65,1.0,2.0,95,0.00,,,0.02,Wunderground v.1.15,2013-08-10 18:15:00,
2013-08-10 13:21:00,74.5,73.0,30.07,NNE,12,1.0,2.0,95,0.00,,,0.02,Wunderground v.1.15,2013-08-10 18:21:00,
2013-08-10 13:26:00,74.4,72.9,30.07,NNW,339,2.0,3.0,95,0.00,,,0.02,Wunderground v.1.15,2013-08-10 18:26:00,
2013-08-10 13:32:00,74.5,73.3,30.07,NE,50,2.0,2.0,96,0.00,,,0.02,Wunderground v.1.15,2013-08-10 18:32:00,
2013-08-10 13:37:00,74.6,73.4,30.06,NNE,12,2.0,2.0,96,0.00,,,0.03,Wunderground v.1.15,2013-08-10 18:37:00,
2013-08-10 13:42:00,74.8,73.6,30.06,North,10,1.0,2.0,96,0.00,,,0.03,Wunderground v.1.15,2013-08-10 18:42:00,
2013-08-10 13:48:00,75.0,73.8,30.06,NE,43,1.0,2.0,96,0.00,,,0.03,Wunderground v.1.15,2013-08-10 18:48:00,
2013-08-10 13:53:00,75.2,74.0,30.06,NNE,17,1.0,4.0,96,0.00,,,0.03,Wunderground v.1.15,2013-08-10 18:53:00,
2013-08-10 13:59:00,75.5,74.0,30.05,NNW,334,2.0,4.0,95,0.00,,,0.03,Wunderground v.1.15,2013-08-10 18:59:00,
2013-08-10 14:04:00,75.8,74.3,30.05,NNE,12,2.0,4.0,95,0.00,,,0.03,Wunderground v.1.15,2013-08-10 19:04:00,
2013-08-10 14:10:00,76.1,74.2,30.05,ENE,62,2.0,2.0,94,0.00,,,0.03,Wunderground v.1.15,2013-08-10 19:10:00,
2013-08-10 14:15:00,76.6,74.7,30.05,North,352,2.0,2.0,94,0.00,,,0.03,Wunderground v.1.15,2013-08-10 19:15:00,
2013-08-10 14:21:00,77.0,74.5,30.05,North,358,1.0,2.0,92,0.00,,,0.03,Wunderground v.1.15,2013-08-10 19:21:00,
2013-08-10 14:26:00,77.1,74.3,30.06,NNE,12,2.0,4.0,91,0.00,,,0.03,Wunderground v.1.15,2013-08-10 19:26:00,
2013-08-10 14:32:00,77.2,74.4,30.06,WNW,287,2.0,2.0,91,0.00,,,0.03,Wunderground v.1.15,2013-08-10 19:32:00,
2013-08-10 14:37:00,77.4,74.6,30.05,NE,46,1.0,3.0,91,0.00,,,0.03,Wunderground v.1.15,2013-08-10 19:37:00,
2013-08-10 14:43:00,77.0,73.8,30.05,North,351,2.0,4.0,90,0.00,,,0.03,Wunderground v.1.15,2013-08-10 19:43:00,
2013-08-10 14:49:00,76.4,73.6,30.06,East,95,3.0,4.0,91,0.00,,,0.03,Wunderground v.1.15,2013-08-10 19:49:00,
2013-08-10 14:55:00,76.3,73.5,30.06,NE,55,2.0,3.0,91,0.00,,,0.03,Wunderground v.1.15,2013-08-10 19:55:00,
2013-08-10 15:00:00,76.3,73.8,30.05,NE,47,1.0,2.0,92,0.00,,,0.03,Wunderground v.1.15,2013-08-10 20:00:00,
2013-08-10 15:06:00,76.2,73.7,30.05,NNE,19,2.0,3.0,92,0.00,,,0.03,Wunderground v.1.15,2013-08-10 20:06:00,
2013-08-10 15:11:00,76.1,73.6,30.05,North,1,2.0,2.0,92,0.00,,,0.03,Wunderground v.1.15,2013-08-10 20:11:00,
2013-08-10 15:16:00,76.3,73.8,30.04,ENE,64,2.0,2.0,92,0.00,,,0.03,Wunderground v.1.15,2013-08-10 20:16:00,
2013-08-10 15:22:00,76.4,73.9,30.04,ENE,66,1.0,2.0,92,0.00,,,0.03,Wunderground v.1.15,2013-08-10 20:22:00,
2013-08-10 15:27:00,76.8,74.3,30.05,ESE,122,1.0,2.0,92,0.00,,,0.03,Wunderground v.1.15,2013-08-10 20:27:00,
2013-08-10 15:33:00,77.1,74.6,30.05,NNE,17,0.0,2.0,92,0.00,,,0.03,Wunderground v.1.15,2013-08-10 20:33:00,
2013-08-10 15:38:00,77.2,74.0,30.04,North,3,1.0,2.0,90,0.00,,,0.03,Wunderground v.1.15,2013-08-10 20:38:00,
2013-08-10 15:44:00,77.2,74.0,30.04,WNW,295,1.0,2.0,90,0.00,,,0.03,Wunderground v.1.15,2013-08-10 20:44:00,
2013-08-10 15:49:00,77.7,74.9,30.04,West,272,1.0,1.0,91,0.00,,,0.03,Wunderground v.1.15,2013-08-10 20:49:00,
2013-08-10 15:55:00,78.1,74.6,30.04,ENE,67,0.0,2.0,89,0.00,,,0.03,Wunderground v.1.15,2013-08-10 20:55:00,
2013-08-10 16:00:00,78.2,74.7,30.04,ENE,65,0.0,2.0,89,0.00,,,0.03,Wunderground v.1.15,2013-08-10 21:00:00,
2013-08-10 16:06:00,78.4,74.5,30.04,NE,49,0.0,2.0,88,0.00,,,0.03,Wunderground v.1.15,2013-08-10 21:06:00,
2013-08-10 16:11:00,78.5,75.0,30.04,North,2,0.0,2.0,89,0.00,,,0.03,Wunderground v.1.15,2013-08-10 21:11:00,
2013-08-10 16:17:00,78.4,75.2,30.04,North,356,1.0,2.0,90,0.00,,,0.03,Wunderground v.1.15,2013-08-10 21:17:00,
2013-08-10 16:22:00,78.5,75.3,30.04,NNW,347,1.0,2.0,90,0.00,,,0.03,Wunderground v.1.15,2013-08-10 21:22:00,
2013-08-10 16:27:00,78.6,75.4,30.04,NNE,13,0.0,2.0,90,0.00,,,0.03,Wunderground v.1.15,2013-08-10 21:27:00,
2013-08-10 16:33:00,78.3,75.5,30.04,North,356,1.0,3.0,91,0.00,,,0.03,Wunderground v.1.15,2013-08-10 21:33:00,
2013-08-10 16:38:00,78.3,75.5,30.04,ENE,60,1.0,3.0,91,0.00,,,0.03,Wunderground v.1.15,2013-08-10 21:38:00,
2013-08-10 16:44:00,78.5,75.7,30.04,ENE,60,0.0,2.0,91,0.00,,,0.03,Wunderground v.1.15,2013-08-10 21:44:00,
2013-08-10 16:49:00,78.5,75.3,30.04,NE,51,0.0,2.0,90,0.00,,,0.03,Wunderground v.1.15,2013-08-10 21:49:00,
2013-08-10 16:55:00,78.2,75.0,30.04,NNE,32,0.0,2.0,90,0.00,,,0.03,Wunderground v.1.15,2013-08-10 21:55:00,
2013-08-10 17:00:00,78.2,75.4,30.03,NNE,32,0.0,2.0,91,0.00,,,0.03,Wunderground v.1.15,2013-08-10 22:00:00,
2013-08-10 17:06:00,78.1,75.3,30.03,NNE,32,0.0,2.0,91,0.00,,,0.03,Wunderground v.1.15,2013-08-10 22:06:00,
2013-08-10 17:11:00,78.4,75.6,30.03,NNE,32,0.0,2.0,91,0.00,,,0.03,Wunderground v.1.15,2013-08-10 22:11:00,
2013-08-10 17:16:00,78.7,75.8,30.04,NNW,344,0.0,2.0,91,0.00,,,0.03,Wunderground v.1.15,2013-08-10 22:16:00,
2013-08-10 17:22:00,78.9,75.7,30.04,North,351,0.0,2.0,90,0.00,,,0.03,Wunderground v.1.15,2013-08-10 22:22:00,
2013-08-10 17:27:00,79.4,75.9,30.04,NE,56,1.0,2.0,89,0.00,,,0.03,Wunderground v.1.15,2013-08-10 22:27:00,
2013-08-10 17:33:00,79.4,75.9,30.04,ENE,71,1.0,2.0,89,0.00,,,0.03,Wunderground v.1.15,2013-08-10 22:33:00,
2013-08-10 17:38:00,79.7,76.2,30.04,WNW,299,1.0,2.0,89,0.00,,,0.03,Wunderground v.1.15,2013-08-10 22:38:00,
2013-08-10 17:43:00,80.2,76.3,30.04,NE,55,0.0,2.0,88,0.00,,,0.03,Wunderground v.1.15,2013-08-10 22:43:00,
2013-08-10 17:49:00,80.5,76.6,30.04,North,354,1.0,2.0,88,0.00,,,0.03,Wunderground v.1.15,2013-08-10 22:49:00,
2013-08-10 17:54:00,80.8,76.6,30.03,WNW,302,0.0,3.0,87,0.00,,,0.03,Wunderground v.1.15,2013-08-10 22:54:00,
2013-08-10 18:00:00,80.9,76.7,30.03,NW,305,1.0,1.0,87,0.00,,,0.03,Wunderground v.1.15,2013-08-10 23:00:00,
2013-08-10 18:05:00,81.1,77.2,30.03,NNW,344,0.0,2.0,88,0.00,,,0.03,Wunderground v.1.15,2013-08-10 23:05:00,
2013-08-10 18:11:00,80.8,76.6,30.03,WNW,294,0.0,2.0,87,0.00,,,0.03,Wunderground v.1.15,2013-08-10 23:11:00,
2013-08-10 18:16:00,80.7,76.5,30.03,WNW,294,0.0,2.0,87,0.00,,,0.03,Wunderground v.1.15,2013-08-10 23:16:00,
2013-08-10 18:22:00,80.6,76.7,30.04,WNW,293,0.0,2.0,88,0.00,,,0.03,Wunderground v.1.15,2013-08-10 23:22:00,
2013-08-10 18:27:00,80.2,76.7,30.04,WNW,293,0.0,2.0,89,0.00,,,0.03,Wunderground v.1.15,2013-08-10 23:27:00,
2013-08-10 18:32:00,79.9,76.7,30.04,WNW,294,0.0,2.0,90,0.00,,,0.03,Wunderground v.1.15,2013-08-10 23:32:00,
2013-08-10 18:38:00,79.8,76.6,30.03,WNW,294,0.0,2.0,90,0.00,,,0.03,Wunderground v.1.15,2013-08-10 23:38:00,
2013-08-10 18:43:00,79.3,76.4,30.04,WNW,293,0.0,2.0,91,0.00,,,0.03,Wunderground v.1.15,2013-08-10 23:43:00,
2013-08-10 18:49:00,78.8,75.9,30.04,WNW,294,0.0,2.0,91,0.00,,,0.03,Wunderground v.1.15,2013-08-10 23:49:00,
2013-08-10 18:54:00,78.5,76.0,30.04,WNW,293,0.0,2.0,92,0.00,,,0.03,Wunderground v.1.15,2013-08-10 23:54:00,
2013-08-10 19:00:00,78.3,75.8,30.04,WNW,294,0.0,2.0,92,0.00,,,0.03,Wunderground v.1.15,2013-08-11 00:00:00,
2013-08-10 19:05:00,78.1,75.6,30.04,WNW,293,0.0,2.0,92,0.00,,,0.03,Wunderground v.1.15,2013-08-11 00:05:00,
2013-08-10 19:11:00,77.8,75.6,30.04,NE,38,0.0,2.0,93,0.00,,,0.03,Wunderground v.1.15,2013-08-11 00:11:00,
2013-08-10 19:16:00,77.8,75.6,30.04,NE,43,0.0,2.0,93,0.00,,,0.03,Wunderground v.1.15,2013-08-11 00:16:00,
2013-08-10 19:21:00,77.6,75.4,30.04,North,3,0.0,2.0,93,0.00,,,0.03,Wunderground v.1.15,2013-08-11 00:21:00,
2013-08-10 19:27:00,77.4,75.2,30.05,NNW,332,0.0,2.0,93,0.00,,,0.03,Wunderground v.1.15,2013-08-11 00:27:00,
2013-08-10 19:32:00,77.2,75.3,30.04,NNW,332,0.0,2.0,94,0.00,,,0.03,Wunderground v.1.15,2013-08-11 00:32:00,
2013-08-10 19:38:00,77.0,75.1,30.04,NNW,332,0.0,2.0,94,0.00,,,0.03,Wunderground v.1.15,2013-08-11 00:38:00,
2013-08-10 19:43:00,76.8,75.3,30.04,NNW,332,0.0,2.0,95,0.00,,,0.03,Wunderground v.1.15,2013-08-11 00:43:00,
2013-08-10 19:48:00,76.6,75.1,30.04,NNW,332,0.0,2.0,95,0.00,,,0.03,Wunderground v.1.15,2013-08-11 00:48:00,
2013-08-10 19:54:00,76.5,75.0,30.05,NNW,332,0.0,2.0,95,0.00,,,0.03,Wunderground v.1.15,2013-08-11 00:54:00,
2013-08-10 19:59:00,76.5,75.3,30.05,NNW,332,0.0,2.0,96,0.00,,,0.03,Wunderground v.1.15,2013-08-11 00:59:00,
2013-08-10 20:05:00,76.4,75.2,30.05,NNW,332,0.0,2.0,96,0.00,,,0.03,Wunderground v.1.15,2013-08-11 01:05:00,
2013-08-10 20:10:00,76.3,75.1,30.06,NNW,332,0.0,2.0,96,0.00,,,0.03,Wunderground v.1.15,2013-08-11 01:10:00,
2013-08-10 20:16:00,76.2,75.0,30.06,NNW,336,0.0,2.0,96,0.00,,,0.03,Wunderground v.1.15,2013-08-11 01:16:00,
2013-08-10 20:21:00,76.0,74.8,30.06,NNW,337,0.0,2.0,96,0.00,,,0.03,Wunderground v.1.15,2013-08-11 01:21:00,
2013-08-10 20:26:00,75.9,74.7,30.06,NNW,336,0.0,2.0,96,0.00,,,0.03,Wunderground v.1.15,2013-08-11 01:26:00,
2013-08-10 20:32:00,75.8,74.6,30.06,NNW,335,0.0,2.0,96,0.00,,,0.03,Wunderground v.1.15,2013-08-11 01:32:00,
2013-08-10 20:38:00,75.8,74.6,30.06,NNW,335,0.0,2.0,96,0.00,,,0.03,Wunderground v.1.15,2013-08-11 01:38:00,
2013-08-10 20:43:00,75.6,74.4,30.06,NNW,336,0.0,2.0,96,0.00,,,0.03,Wunderground v.1.15,2013-08-11 01:43:00,
2013-08-10 20:49:00,75.5,74.3,30.06,NNW,337,0.0,2.0,96,0.00,,,0.03,Wunderground v.1.15,2013-08-11 01:49:00,
2013-08-10 20:54:00,75.4,74.5,30.06,NNW,336,0.0,2.0,97,0.00,,,0.03,Wunderground v.1.15,2013-08-11 01:54:00,
2013-08-10 20:59:00,75.4,74.5,30.07,NNW,336,0.0,2.0,97,0.00,,,0.03,Wunderground v.1.15,2013-08-11 01:59:00,
2013-08-10 21:05:00,75.2,74.3,30.07,NNW,336,0.0,2.0,97,0.00,,,0.03,Wunderground v.1.15,2013-08-11 02:05:00,
2013-08-10 21:10:00,75.0,74.1,30.07,NNW,336,0.0,2.0,97,0.00,,,0.03,Wunderground v.1.15,2013-08-11 02:10:00,
2013-08-10 21:15:00,75.0,74.1,30.07,NNW,337,0.0,2.0,97,0.00,,,0.03,Wunderground v.1.15,2013-08-11 02:15:00,
2013-08-10 21:21:00,75.1,74.2,30.07,NNW,337,0.0,2.0,97,0.00,,,0.03,Wunderground v.1.15,2013-08-11 02:21:00,
2013-08-10 21:26:00,75.1,74.2,30.07,NNW,335,0.0,2.0,97,0.00,,,0.03,Wunderground v.1.15,2013-08-11 02:26:00,
2013-08-10 21:32:00,74.9,74.0,30.07,NNW,335,0.0,2.0,97,0.00,,,0.03,Wunderground v.1.15,2013-08-11 02:32:00,
2013-08-10 21:37:00,74.8,73.9,30.07,NNW,335,0.0,2.0,97,0.00,,,0.03,Wunderground v.1.15,2013-08-11 02:37:00,
2013-08-10 21:43:00,74.8,73.9,30.07,NNW,336,0.0,2.0,97,0.00,,,0.03,Wunderground v.1.15,2013-08-11 02:43:00,
2013-08-10 21:48:00,74.7,73.8,30.07,NNW,336,0.0,2.0,97,0.00,,,0.03,Wunderground v.1.15,2013-08-11 02:48:00,
2013-08-10 21:54:00,74.6,73.7,30.07,NNW,335,0.0,2.0,97,0.00,,,0.03,Wunderground v.1.15,2013-08-11 02:54:00,
2013-08-10 22:02:00,74.4,73.5,30.07,NNW,335,0.0,2.0,97,0.00,,,0.03,Wunderground v.1.15,2013-08-11 03:02:00,
2013-08-10 22:08:00,74.3,73.4,30.07,NNW,334,0.0,2.0,97,0.00,,,0.03,Wunderground v.1.15,2013-08-11 03:08:00,
2013-08-10 22:14:00,74.1,73.2,30.07,NNW,334,0.0,2.0,97,0.00,,,0.03,Wunderground v.1.15,2013-08-11 03:14:00,
2013-08-10 22:19:00,73.9,73.0,30.07,NNW,334,0.0,2.0,97,0.00,,,0.03,Wunderground v.1.15,2013-08-11 03:19:00,
2013-08-10 22:25:00,73.8,72.9,30.07,NNW,334,0.0,2.0,97,0.00,,,0.03,Wunderground v.1.15,2013-08-11 03:25:00,
2013-08-10 22:30:00,73.7,72.8,30.07,NNW,334,0.0,2.0,97,0.00,,,0.03,Wunderground v.1.15,2013-08-11 03:30:00,
2013-08-10 22:36:00,73.7,72.8,30.07,NNW,334,0.0,2.0,97,0.00,,,0.03,Wunderground v.1.15,2013-08-11 03:36:00,
2013-08-10 22:43:00,73.6,72.7,30.07,NNW,334,0.0,2.0,97,0.00,,,0.03,Wunderground v.1.15,2013-08-11 03:43:00,
2013-08-10 22:48:00,73.5,72.6,30.07,NNW,334,0.0,2.0,97,0.00,,,0.03,Wunderground v.1.15,2013-08-11 03:48:00,
2013-08-10 22:54:00,73.4,72.5,30.07,NNW,334,0.0,2.0,97,0.00,,,0.03,Wunderground v.1.15,2013-08-11 03:54:00,
2013-08-10 22:59:00,73.3,72.4,30.07,NNW,334,0.0,2.0,97,0.00,,,0.03,Wunderground v.1.15,2013-08-11 03:59:00,
2013-08-10 23:02:00,73.3,72.4,30.07,NNW,335,0.0,2.0,97,0.00,,,0.03,Wunderground v.1.15,2013-08-11 04:02:00,
2013-08-10 23:03:00,73.3,72.4,30.07,NNW,334,0.0,2.0,97,0.00,,,0.03,Wunderground v.1.15,2013-08-11 04:03:00,
2013-08-10 23:04:00,73.3,72.4,30.07,NNW,334,0.0,2.0,97,0.00,,,0.03,Wunderground v.1.15,2013-08-11 04:04:00,
2013-08-10 23:06:00,73.3,72.4,30.07,NNW,334,0.0,2.0,97,0.00,,,0.03,Wunderground v.1.15,2013-08-11 04:06:00,
2013-08-10 23:11:00,73.3,72.7,30.08,NNW,334,0.0,2.0,98,0.00,,,0.03,Wunderground v.1.15,2013-08-11 04:11:00,
2013-08-10 23:17:00,73.4,72.8,30.07,NNW,334,0.0,2.0,98,0.00,,,0.03,Wunderground v.1.15,2013-08-11 04:17:00,
2013-08-10 23:20:00,73.4,72.8,30.07,NNW,336,0.0,2.0,98,0.00,,,0.03,Wunderground v.1.15,2013-08-11 04:20:00,
2013-08-10 23:25:00,73.4,72.8,30.08,NNW,336,0.0,2.0,98,0.00,,,0.03,Wunderground v.1.15,2013-08-11 04:25:00,
2013-08-10 23:31:00,73.4,72.8,30.08,NNW,337,0.0,2.0,98,0.00,,,0.03,Wunderground v.1.15,2013-08-11 04:31:00,
2013-08-10 23:36:00,73.4,72.8,30.08,NNW,337,0.0,2.0,98,0.00,,,0.03,Wunderground v.1.15,2013-08-11 04:36:00,
2013-08-10 23:42:00,73.3,72.7,30.08,NNW,338,0.0,2.0,98,0.00,,,0.03,Wunderground v.1.15,2013-08-11 04:42:00,
2013-08-10 23:47:00,73.3,72.7,30.08,NNW,338,0.0,2.0,98,0.00,,,0.03,Wunderground v.1.15,2013-08-11 04:47:00,
2013-08-10 23:52:00,73.2,72.6,30.08,NNW,338,0.0,2.0,98,0.00,,,0.03,Wunderground v.1.15,2013-08-11 04:52:00,
2013-08-10 23:58:00,73.2,72.6,30.08,NNW,338,0.0,2.0,98,0.00,,,0.03,Wunderground v.1.15,2013-08-11 04:58:00,